createdAt,value
2017-06-22T00:00:06.930Z,15.30
2017-06-22T00:02:37.102Z,15.20
2017-06-22T00:05:04.725Z,15.20
2017-06-22T00:07:34.321Z,15.20
2017-06-22T00:10:02.054Z,15.30
2017-06-22T00:12:32.894Z,15.40
2017-06-22T00:15:00.845Z,15.40
2017-06-22T00:17:30.517Z,15.40
2017-06-22T00:20:00.095Z,15.40
2017-06-22T00:22:27.725Z,15.40
2017-06-22T00:24:57.727Z,15.40
2017-06-22T00:27:25.535Z,15.40
2017-06-22T00:29:53.251Z,15.30
2017-06-22T00:32:23.253Z,15.40
2017-06-22T00:34:52.994Z,15.40
2017-06-22T00:37:22.987Z,15.40
2017-06-22T00:39:55.710Z,15.30
2017-06-22T00:42:25.804Z,15.30
2017-06-22T00:44:55.676Z,15.30
2017-06-22T00:47:28.086Z,15.30
2017-06-22T00:49:56.202Z,15.30
2017-06-22T00:52:35.765Z,15.30
2017-06-22T00:55:06.202Z,15.30
2017-06-22T00:57:35.794Z,15.30
2017-06-22T01:00:05.654Z,15.30
2017-06-22T01:02:38.461Z,15.30
2017-06-22T01:05:08.536Z,15.30
2017-06-22T01:07:36.170Z,15.30
2017-06-22T01:10:06.470Z,15.20
2017-06-22T01:12:38.681Z,15.30
2017-06-22T01:15:09.458Z,15.30
2017-06-22T01:17:39.340Z,15.30
2017-06-22T01:20:06.983Z,15.30
2017-06-22T01:22:39.560Z,15.30
2017-06-22T01:25:12.379Z,15.20
2017-06-22T01:27:45.179Z,15.20
2017-06-22T01:30:15.180Z,15.20
2017-06-22T01:32:43.114Z,15.20
2017-06-22T01:35:13.170Z,15.20
2017-06-22T01:37:42.914Z,15.30
2017-06-22T01:40:15.638Z,15.30
2017-06-22T01:42:48.475Z,15.30
2017-06-22T01:45:18.302Z,15.30
2017-06-22T01:47:48.562Z,15.20
2017-06-22T01:50:18.306Z,15.20
2017-06-22T01:52:48.206Z,15.20
2017-06-22T01:55:18.042Z,15.20
2017-06-22T01:57:47.762Z,15.20
2017-06-22T02:00:20.439Z,15.20
2017-06-22T02:02:51.170Z,15.20
2017-06-22T02:05:19.302Z,15.10
2017-06-22T02:07:49.293Z,15.10
2017-06-22T02:10:18.773Z,15.10
2017-06-22T02:12:48.733Z,15.10
2017-06-22T02:15:16.671Z,15.10
2017-06-22T02:17:46.626Z,15.00
2017-06-22T02:20:16.551Z,15.20
2017-06-22T02:22:46.203Z,15.00
2017-06-22T02:25:13.749Z,14.90
2017-06-22T02:27:43.603Z,14.90
2017-06-22T02:30:13.365Z,14.90
2017-06-22T02:32:43.206Z,14.90
2017-06-22T02:35:13.008Z,14.90
2017-06-22T02:37:42.819Z,14.90
2017-06-22T02:40:10.780Z,14.90
2017-06-22T02:42:43.514Z,14.90
2017-06-22T02:45:13.542Z,14.90
2017-06-22T02:47:43.626Z,14.90
2017-06-22T02:50:13.306Z,14.90
2017-06-22T02:52:43.144Z,14.90
2017-06-22T02:55:15.762Z,14.90
2017-06-22T02:57:48.682Z,14.90
2017-06-22T03:00:18.827Z,14.90
2017-06-22T03:02:48.733Z,15.00
2017-06-22T03:05:21.489Z,15.00
2017-06-22T03:08:00.038Z,15.00
2017-06-22T03:10:28.154Z,15.10
2017-06-22T03:12:57.609Z,15.10
2017-06-22T03:15:25.511Z,15.20
2017-06-22T03:17:58.253Z,15.20
2017-06-22T03:20:31.090Z,15.20
2017-06-22T03:22:59.019Z,15.30
2017-06-22T03:25:28.750Z,15.40
2017-06-22T03:28:01.487Z,15.40
2017-06-22T03:30:31.174Z,15.50
2017-06-22T03:33:02.106Z,15.60
2017-06-22T03:35:34.903Z,15.70
2017-06-22T03:38:08.006Z,15.80
2017-06-22T03:40:40.540Z,15.80
2017-06-22T03:43:10.412Z,15.90
2017-06-22T03:45:42.954Z,15.90
2017-06-22T03:48:16.921Z,16.00
2017-06-22T03:50:46.792Z,16.00
2017-06-22T03:53:14.802Z,16.10
2017-06-22T03:55:45.283Z,16.20
2017-06-22T03:58:14.180Z,16.60
2017-06-22T04:00:47.977Z,17.30
2017-06-22T04:03:15.341Z,18.70
2017-06-22T04:05:48.815Z,18.70
2017-06-22T06:52:32.018Z,41.50
2017-06-22T06:55:06.885Z,42.00
2017-06-22T06:57:33.213Z,42.50
2017-06-22T07:00:07.632Z,42.90
2017-06-22T07:02:33.948Z,42.90
2017-06-22T07:05:08.416Z,42.70
2017-06-22T07:07:49.662Z,42.60
2017-06-22T07:13:16.666Z,43.00
2017-06-22T07:15:42.956Z,44.10
2017-06-22T07:18:24.162Z,45.00
2017-06-22T07:20:56.562Z,45.20
2017-06-22T07:23:25.932Z,45.60
2017-06-22T07:25:55.769Z,45.80
2017-06-22T07:28:32.105Z,45.80
2017-06-22T07:30:58.301Z,45.40
2017-06-22T07:33:24.487Z,45.20
2017-06-22T07:35:57.199Z,45.10
2017-06-22T07:38:26.859Z,45.50
2017-06-22T07:40:56.440Z,45.90
2017-06-22T07:43:31.014Z,45.80
2017-06-22T07:46:03.735Z,45.70
2017-06-22T07:48:38.821Z,45.60
2017-06-22T07:51:13.347Z,45.60
2017-06-22T07:53:47.762Z,45.70
2017-06-22T07:56:19.496Z,46.00
2017-06-22T07:58:52.914Z,46.30
2017-06-22T08:01:27.646Z,46.90
2017-06-22T08:04:08.082Z,47.40
2017-06-22T08:06:36.790Z,47.60
2017-06-22T13:09:40.551Z,33.80
2017-06-22T16:05:02.891Z,31.50
2017-06-22T16:13:32.578Z,29.50
2017-06-22T16:18:59.224Z,28.00
2017-06-22T16:38:57.710Z,25.50
2017-06-22T17:44:51.393Z,21.80
2017-06-22T17:47:18.993Z,21.60
2017-06-22T17:49:48.641Z,21.20
2017-06-22T17:52:15.506Z,20.90
2017-06-22T17:54:49.555Z,20.70
2017-06-22T17:57:22.190Z,20.50
2017-06-22T17:59:49.229Z,20.30
2017-06-22T18:02:15.484Z,20.20
2017-06-22T18:04:43.836Z,20.10
2017-06-22T18:07:14.771Z,19.90
2017-06-22T18:09:48.988Z,19.80
2017-06-22T18:12:21.266Z,19.70
2017-06-22T18:14:47.685Z,19.60
2017-06-22T18:17:13.890Z,19.50
2017-06-22T18:19:40.225Z,19.40
2017-06-22T18:22:09.690Z,19.30
2017-06-22T18:24:35.884Z,19.30
2017-06-22T18:27:02.293Z,19.20
2017-06-22T18:29:28.517Z,19.00
2017-06-22T18:31:54.791Z,19.00
2017-06-22T18:34:21.042Z,18.90
2017-06-22T18:36:47.267Z,18.90
2017-06-22T18:39:13.476Z,18.90
2017-06-22T18:50:18.529Z,18.80
2017-06-22T18:52:44.747Z,18.70
2017-06-22T18:55:10.959Z,18.60
2017-06-22T18:57:37.183Z,18.60
2017-06-22T19:00:03.694Z,18.60
2017-06-22T19:02:30.623Z,18.50
2017-06-22T19:04:56.856Z,18.40
2017-06-22T19:07:23.080Z,18.30
2017-06-22T19:09:49.286Z,18.30
2017-06-22T19:12:18.926Z,18.20
2017-06-22T19:14:51.981Z,18.10
2017-06-22T19:17:22.405Z,18.10
2017-06-22T19:19:52.442Z,18.00
2017-06-22T19:22:26.190Z,17.90
2017-06-22T19:24:58.827Z,17.90
2017-06-22T19:27:27.415Z,17.80
2017-06-22T19:30:01.621Z,17.80
2017-06-22T19:32:33.991Z,17.80
2017-06-22T19:35:06.667Z,17.80
2017-06-22T19:37:32.868Z,17.80
2017-06-22T19:40:05.185Z,17.80
2017-06-22T19:42:35.127Z,17.80
2017-06-22T19:45:01.409Z,17.80
2017-06-22T19:47:33.820Z,17.80
2017-06-22T19:50:06.295Z,17.70
2017-06-22T19:52:38.834Z,17.80
2017-06-22T19:55:11.704Z,17.80
2017-06-22T19:57:44.160Z,17.80
2017-06-22T20:00:16.902Z,17.80
2017-06-22T20:02:46.982Z,17.80
2017-06-22T20:05:16.685Z,17.90
2017-06-22T20:07:49.744Z,18.00
2017-06-22T20:10:22.399Z,18.00
2017-06-22T20:12:52.256Z,18.00
2017-06-22T20:15:22.982Z,18.00
2017-06-22T20:17:52.797Z,18.00
2017-06-22T20:20:23.106Z,18.10
2017-06-22T20:22:52.739Z,18.10
2017-06-22T20:25:22.755Z,18.00
2017-06-22T20:27:52.934Z,18.10
2017-06-22T20:30:20.632Z,18.10
2017-06-22T20:32:50.085Z,18.10
2017-06-22T20:35:18.114Z,18.20
2017-06-22T20:37:50.719Z,18.20
2017-06-22T20:40:20.501Z,18.20
2017-06-22T20:42:50.379Z,18.20
2017-06-22T20:45:20.308Z,18.20
2017-06-22T20:47:56.820Z,18.20
2017-06-22T20:50:24.731Z,18.20
2017-06-22T20:52:55.566Z,18.20
2017-06-22T20:55:23.427Z,18.20
2017-06-22T20:57:53.285Z,18.20
2017-06-22T21:00:22.977Z,18.20
2017-06-22T21:02:55.955Z,18.20
2017-06-22T21:05:32.632Z,18.20
2017-06-22T21:08:02.451Z,18.10
2017-06-22T21:10:32.289Z,18.20
2017-06-22T21:13:01.878Z,18.20
2017-06-22T21:15:34.416Z,18.20
2017-06-22T21:18:04.779Z,18.10
2017-06-22T21:20:37.212Z,18.10
2017-06-22T21:23:07.048Z,18.10
2017-06-22T21:25:37.036Z,18.10
2017-06-22T21:28:06.933Z,18.20
2017-06-22T21:30:34.593Z,18.20
2017-06-22T21:33:04.227Z,18.20
2017-06-22T21:35:34.076Z,18.10
2017-06-22T21:38:02.105Z,18.20
2017-06-22T21:40:29.977Z,18.20
2017-06-22T21:43:00.208Z,18.20
2017-06-22T21:45:26.488Z,18.20
2017-06-22T21:47:52.780Z,18.10
2017-06-22T21:50:19.076Z,18.10
2017-06-22T21:52:45.352Z,17.80
2017-06-22T21:55:11.622Z,17.70
2017-06-22T21:57:37.890Z,17.50
2017-06-22T22:00:04.156Z,17.50
2017-06-22T22:02:36.622Z,17.60
2017-06-22T22:05:02.849Z,17.60
2017-06-22T22:07:29.129Z,17.70
2017-06-22T22:09:55.420Z,17.70
2017-06-22T22:12:21.671Z,17.80
2017-06-22T22:14:47.963Z,17.70
2017-06-22T22:17:14.529Z,17.70
2017-06-22T22:19:46.819Z,17.70
2017-06-22T22:22:19.564Z,17.60
2017-06-22T22:24:49.074Z,17.60
2017-06-22T22:27:16.625Z,17.60
2017-06-22T22:29:42.841Z,17.60
2017-06-22T22:32:12.434Z,17.70
2017-06-22T22:34:41.962Z,17.70
2017-06-22T22:37:08.160Z,17.70
2017-06-22T22:39:34.387Z,17.70
2017-06-22T22:42:00.586Z,17.70
2017-06-22T22:44:26.782Z,17.60
2017-06-22T22:46:54.574Z,17.60
2017-06-22T22:49:20.821Z,17.50
2017-06-22T22:51:47.112Z,17.50
2017-06-22T22:54:13.291Z,17.40
2017-06-22T22:56:39.510Z,17.50
2017-06-22T22:59:12.124Z,17.40
2017-06-22T23:01:51.559Z,17.40
2017-06-22T23:04:24.403Z,17.50
2017-06-22T23:06:50.585Z,17.40
2017-06-22T23:09:20.213Z,17.50
2017-06-22T23:11:47.161Z,17.60
2017-06-22T23:14:19.631Z,17.60
2017-06-22T23:16:51.851Z,17.60
2017-06-22T23:19:19.555Z,17.70
2017-06-22T23:21:49.323Z,17.80
2017-06-22T23:24:21.799Z,17.80
2017-06-22T23:26:54.027Z,17.90
2017-06-22T23:29:23.602Z,17.90
2017-06-22T23:31:51.286Z,18.00
2017-06-22T23:34:21.108Z,18.00
2017-06-22T23:36:53.730Z,18.10
2017-06-22T23:39:21.962Z,18.10
2017-06-22T23:41:51.403Z,18.10
2017-06-22T23:44:23.853Z,18.20
2017-06-22T23:46:53.731Z,18.20
2017-06-22T23:49:28.190Z,18.20
2017-06-22T23:51:54.392Z,18.20
2017-06-22T23:54:24.083Z,18.30
2017-06-22T23:56:56.435Z,18.30
2017-06-22T23:59:22.657Z,18.40
